Southwest Florida International Airport
KRSW : now visible

Airfield :











YOU CAN JOIN US ON...

 
LOGIN :

Register | Disclaimer

   EN    FR    IT 

 









Legend :    VFR   Marginal VFR   IFR   Intensive IFR   Very Intensive IFR
Visi :
Ceiling :
>= 8 km
>= 3000ft
5 to 8 km
1000 to 3000 ft
1500m to 5 km
500 to 1000 ft
800 to 1500m
200 to 500 ft
< 800m
< 200 ft
Symbols :   Thunderstorms  Fog  Heavy snow  Heavy precipitations  Wind > 20 kt






- Airport Elevation : 30 ft
- IATA code : RSW


KRSW - Southwest Florida International

CURRENT METAR :
  • 250453Z 02003KT 10SM OVC055 28/23 A2993 RMK AO2 SLP133 T02780228 403440206 $

EXPIRED METARs :
  • 250353Z AUTO 35003KT 10SM OVC060 28/23 A2994 RMK AO2 SLP134 T02780228 $
  • 250253Z 33003KT 10SM SCT050 28/23 A2994 RMK AO2 SLP136 T02830233 51017 $
  • 250153Z 33005KT 10SM SCT050 28/22 A2993 RMK AO2 SLP132 T02830222 $
  • 250053Z 29005KT 10SM SCT050 29/22 A2992 RMK AO2 SLP128 T02890217 $

TAF KRSW
Valid from the 25 at 00:00 until the 26 at 00:00 UTC


242322Z 2500/2524 30007KT P6SM FEW050 SCT250
FM250200 VRB03KT P6SM SKC
FM251600 25008KT P6SM FEW050 SCT250
KZMA FIR / North America



MET'MAP, your aeronautical weather chart ! - Copyright ORBIFLY December 2007 - Disclaimer

ORBIFLY MET'MAP TEAM :

Programming & Development : Alexandra Zaïnal
Original concept : Baudouin d'Aumeries
Technical & hardware support : Manuel Goepfert
Assistance : Marc-Olivier Méhu




SOURCES & CREDITS :

   NOAA       Earth
Advisory